Glasser, New Jersey
Current Conditions -  °F | °C
As of 9:53 PM on Saturday 22 Nov 2014 (Local Time) from KFWN Reporting Station
Clear Clear  
Wind Chill: 31°   Ceiling: Unl
Heat Index: 38°   Visibility: 10mi
Dew Point: 18°   Wind: 10mph
Humidity: 44%   Direction: 210°SSW
Pressure: 30.17"   Gusts: NA
Location:  40.99°N, 74.62°W
Report Text: KFWN 230253Z AUTO 21009KT 10SM CLR 03/M08 A3017 RMK AO2 SLP221 T00331078 58008
Loading
Personal Weather Stations






























Interactive Weather Map New forecast layout! Learn more

10-Day Weather Forecast

Advertisements
Track Severe Weather on mobile